Terminal Aerodrome Forecast
Issued by NWS Sioux Falls, SD

Home | Current Version | Previous Version | Graphics & Text | Print | Product List | Glossary On
Versions: 1 2 3 4 5 6 7 8 9 10 11 12 13 14 15 16 17 18 19 20 21 22 23 24
000
FTUS43 KFSD 152343
TAFFSD
TAF
KFSD 152343Z 1600/1624 10007KT P6SM OVC025
     FM160800 12005KT 5SM SHRA OVC010
     FM161000 10004KT 4SM SHRA BR OVC008
     FM161600 14007KT P6SM OVC015
     FM161800 19005KT P6SM OVC030
     FM162000 28006KT P6SM OVC040=

USA.gov is the U.S. government's official web portal to all federal, state and local government web resources and services.